createdAt,value
2023-03-14T00:03:18.850Z,2.28
2023-03-14T00:08:23.242Z,4.18
2023-03-14T00:13:48.400Z,2.40
2023-03-14T00:19:10.983Z,2.60
2023-03-14T00:24:33.224Z,2.65
2023-03-14T00:29:55.972Z,2.08
2023-03-14T00:35:18.513Z,3.95
2023-03-14T00:40:41.853Z,2.75
2023-03-14T00:46:06.622Z,3.47
2023-03-14T00:51:28.788Z,1.95
2023-03-14T00:56:33.118Z,3.35
2023-03-14T01:01:38.634Z,2.83
2023-03-14T01:06:45.200Z,2.08
2023-03-14T01:11:49.074Z,2.00
2023-03-14T01:16:55.140Z,2.55
2023-03-14T01:22:17.777Z,3.75
2023-03-14T01:27:40.065Z,2.65
2023-03-14T01:32:44.705Z,1.58
2023-03-14T01:37:48.725Z,2.80
2023-03-14T01:43:00.065Z,7.28
2023-03-14T01:48:04.103Z,9.20
2023-03-14T01:53:08.490Z,10.43
2023-03-14T01:58:12.596Z,13.10
2023-03-14T02:03:22.862Z,10.80
2023-03-14T02:08:29.275Z,10.52
2023-03-14T02:13:38.185Z,10.30
2023-03-14T02:19:02.564Z,7.60
2023-03-14T02:24:49.238Z,6.57
2023-03-14T02:29:59.110Z,6.72
2023-03-14T02:35:11.596Z,8.18
2023-03-14T02:40:15.696Z,7.20
2023-03-14T02:45:31.198Z,5.55
2023-03-14T02:50:36.681Z,2.65
2023-03-14T02:55:41.031Z,3.00
2023-03-14T03:00:50.172Z,2.80
2023-03-14T03:05:57.125Z,3.95
2023-03-14T03:11:01.892Z,3.17
2023-03-14T03:16:09.259Z,3.17
2023-03-14T03:21:13.400Z,2.05
2023-03-14T03:26:20.523Z,2.95
2023-03-14T03:31:24.380Z,2.72
2023-03-14T03:36:29.083Z,2.67
2023-03-14T03:41:36.170Z,2.13
2023-03-14T03:46:40.412Z,1.75
2023-03-14T03:51:45.443Z,1.63
2023-03-14T03:56:49.731Z,2.53
2023-03-14T04:01:53.917Z,1.70
2023-03-14T04:06:58.281Z,1.90
2023-03-14T04:12:02.629Z,1.95
2023-03-14T04:17:26.758Z,2.17
2023-03-14T04:22:31.441Z,3.42
2023-03-14T04:27:37.235Z,3.55
2023-03-14T04:32:46.542Z,1.77
2023-03-14T04:37:51.118Z,4.22
2023-03-14T04:42:55.198Z,1.75
2023-03-14T04:48:00.036Z,2.60
2023-03-14T04:53:04.221Z,2.30
2023-03-14T04:58:29.092Z,1.40
2023-03-14T05:03:35.060Z,1.70
2023-03-14T05:09:02.219Z,2.83
2023-03-14T05:14:24.444Z,2.05
2023-03-14T05:19:48.602Z,1.50
2023-03-14T05:25:10.816Z,2.03
2023-03-14T05:30:24.659Z,1.42
2023-03-14T05:35:57.158Z,1.65
2023-03-14T05:41:21.012Z,1.70
2023-03-14T05:46:57.573Z,1.85
2023-03-14T05:52:20.118Z,0.90
2023-03-14T05:57:50.192Z,1.38
2023-03-14T06:02:54.263Z,1.95
2023-03-14T06:08:05.302Z,2.97
2023-03-14T06:13:10.224Z,2.75
2023-03-14T06:18:15.794Z,2.15
2023-03-14T06:23:20.684Z,2.20
2023-03-14T06:28:26.119Z,1.88
2023-03-14T06:33:34.967Z,1.95
2023-03-14T06:38:39.636Z,3.50
2023-03-14T06:43:43.770Z,2.30
2023-03-14T06:48:49.067Z,2.28
2023-03-14T06:53:53.976Z,2.30
2023-03-14T06:59:00.982Z,2.42
2023-03-14T07:04:08.247Z,1.95
2023-03-14T07:09:15.295Z,2.20
2023-03-14T07:14:26.029Z,2.03
2023-03-14T07:19:31.092Z,2.10
2023-03-14T07:24:34.988Z,1.60
2023-03-14T07:29:39.065Z,2.03
2023-03-14T07:34:44.196Z,2.15
2023-03-14T07:39:48.164Z,1.73
2023-03-14T07:44:57.235Z,1.85
2023-03-14T07:50:01.192Z,1.98
2023-03-14T07:55:05.440Z,2.20
2023-03-14T08:00:10.341Z,2.08
2023-03-14T08:05:17.064Z,1.88
2023-03-14T08:10:24.043Z,1.98
2023-03-14T08:15:30.084Z,2.00
2023-03-14T08:20:34.619Z,2.08
2023-03-14T08:25:40.220Z,1.83
2023-03-14T08:30:47.297Z,1.92
2023-03-14T08:35:56.300Z,1.67
2023-03-14T08:41:02.107Z,1.38
2023-03-14T08:46:06.230Z,1.85
2023-03-14T08:51:14.369Z,2.63
2023-03-14T08:56:18.280Z,2.10
2023-03-14T09:01:25.809Z,1.88
2023-03-14T09:06:29.639Z,2.08
2023-03-14T09:11:53.030Z,1.98
2023-03-14T09:16:57.133Z,1.95
2023-03-14T09:22:01.216Z,1.75
2023-03-14T09:27:05.037Z,1.38
2023-03-14T09:32:09.077Z,1.50
2023-03-14T09:37:12.964Z,2.70
2023-03-14T09:42:22.104Z,1.45
2023-03-14T09:47:28.081Z,2.75
2023-03-14T09:52:39.069Z,1.60
2023-03-14T09:57:43.647Z,1.90
2023-03-14T10:02:55.312Z,2.40
2023-03-14T10:07:59.598Z,2.20
2023-03-14T10:13:19.886Z,2.20
2023-03-14T10:18:28.028Z,1.63
2023-03-14T10:23:35.519Z,4.80
2023-03-14T10:28:49.638Z,2.05
2023-03-14T10:34:05.692Z,2.42
2023-03-14T10:39:35.761Z,1.15
2023-03-14T10:44:41.766Z,1.90
2023-03-14T10:49:45.496Z,3.15
2023-03-14T10:54:58.934Z,2.22
2023-03-14T11:00:10.033Z,1.40
2023-03-14T11:05:49.684Z,2.38
2023-03-14T11:11:12.280Z,2.22
2023-03-14T11:16:34.607Z,2.38
2023-03-14T11:22:16.977Z,2.60
2023-03-14T11:27:45.256Z,3.13
2023-03-14T11:33:21.985Z,2.58
2023-03-14T11:38:35.212Z,2.28
2023-03-14T11:50:19.587Z,2.35
2023-03-14T11:55:34.398Z,3.17
2023-03-14T12:00:42.009Z,2.55
2023-03-14T12:06:00.222Z,4.43
2023-03-14T12:11:13.293Z,3.03
2023-03-14T12:16:26.629Z,3.22
2023-03-14T12:21:54.256Z,2.80
2023-03-14T12:27:01.415Z,3.80
2023-03-14T12:32:11.089Z,3.20
2023-03-14T12:37:18.117Z,2.47
2023-03-14T12:42:46.099Z,4.10
2023-03-14T12:47:56.467Z,3.28
2023-03-14T12:53:18.743Z,4.30
2023-03-14T12:58:29.132Z,4.20
2023-03-14T13:03:48.209Z,6.53
2023-03-14T13:08:57.903Z,3.10
2023-03-14T13:14:02.007Z,11.02
2023-03-14T13:19:19.344Z,14.23
2023-03-14T13:24:28.793Z,23.63
2023-03-14T13:29:34.281Z,23.67
2023-03-14T13:34:38.538Z,21.00
2023-03-14T13:39:42.670Z,7.75
2023-03-14T13:44:48.134Z,3.55
2023-03-14T13:49:52.697Z,4.25
2023-03-14T13:54:58.456Z,6.13
2023-03-14T14:00:11.904Z,6.22
2023-03-14T14:05:17.044Z,5.80
2023-03-14T14:10:22.060Z,5.40
2023-03-14T14:15:30.057Z,3.67
2023-03-14T14:20:41.842Z,4.13
2023-03-14T14:25:45.994Z,4.32
2023-03-14T14:31:06.920Z,6.10
2023-03-14T14:36:28.052Z,4.63
2023-03-14T14:41:35.387Z,4.10
2023-03-14T14:46:39.767Z,5.47
2023-03-14T14:52:02.363Z,4.18
2023-03-14T14:57:08.376Z,3.90
2023-03-14T15:02:31.796Z,4.22
2023-03-14T15:07:35.722Z,4.53
2023-03-14T15:12:39.694Z,7.40
2023-03-14T15:17:44.333Z,5.10
2023-03-14T15:22:49.169Z,7.57
2023-03-14T15:27:53.226Z,6.95
2023-03-14T15:32:57.112Z,5.35
2023-03-14T15:38:01.106Z,6.75
2023-03-14T15:43:05.327Z,6.20
2023-03-14T15:48:17.165Z,7.38
2023-03-14T15:53:21.030Z,11.68
2023-03-14T15:58:25.018Z,15.57
2023-03-14T16:03:30.381Z,15.32
2023-03-14T16:08:34.621Z,14.68
2023-03-14T16:13:39.349Z,14.05
2023-03-14T16:18:43.405Z,13.35
2023-03-14T16:23:48.005Z,12.40
2023-03-14T16:28:52.023Z,13.25
2023-03-14T16:33:55.910Z,15.10
2023-03-14T16:38:59.919Z,17.13
2023-03-14T16:44:04.078Z,12.95
2023-03-14T16:49:07.880Z,12.35
2023-03-14T16:54:11.899Z,8.15
2023-03-14T17:04:25.377Z,11.23
2023-03-14T17:09:29.442Z,12.38
2023-03-14T17:14:33.441Z,13.88
2023-03-14T17:19:37.255Z,12.45
2023-03-14T17:24:41.247Z,13.07
2023-03-14T17:29:45.423Z,11.70
2023-03-14T17:34:49.174Z,10.32
2023-03-14T17:39:53.218Z,11.75
2023-03-14T17:44:58.213Z,11.73
2023-03-14T17:50:05.878Z,14.48
2023-03-14T17:55:10.219Z,10.87
2023-03-14T18:00:15.300Z,10.05
2023-03-14T18:05:19.619Z,13.93
2023-03-14T18:10:23.888Z,9.82
2023-03-14T18:15:27.779Z,10.43
2023-03-14T18:20:32.065Z,10.52
2023-03-14T18:25:35.865Z,8.85
2023-03-14T18:30:39.814Z,7.63
2023-03-14T18:35:43.773Z,9.30
2023-03-14T18:40:47.714Z,9.45
2023-03-14T18:45:51.638Z,7.22
2023-03-14T18:50:55.639Z,11.23
2023-03-14T18:56:01.415Z,12.02
2023-03-14T19:01:06.545Z,12.18
2023-03-14T19:06:12.796Z,10.35
2023-03-14T19:11:17.662Z,14.48
2023-03-14T19:16:23.448Z,12.25
2023-03-14T19:21:35.780Z,10.48
2023-03-14T19:26:39.620Z,9.85
2023-03-14T19:31:43.707Z,16.25
2023-03-14T19:36:47.473Z,20.00
2023-03-14T19:41:58.164Z,20.20
2023-03-14T19:47:01.956Z,16.55
2023-03-14T19:52:06.088Z,14.38
2023-03-14T19:57:09.999Z,11.13
2023-03-14T20:02:16.688Z,13.63
2023-03-14T20:07:22.835Z,13.50
2023-03-14T20:12:26.962Z,13.43
2023-03-14T20:17:31.060Z,12.93
2023-03-14T20:22:39.831Z,13.57
2023-03-14T20:27:43.768Z,9.40
2023-03-14T20:32:48.875Z,10.80
2023-03-14T20:37:56.825Z,9.60
2023-03-14T20:43:00.907Z,13.68
2023-03-14T20:48:05.000Z,11.77
2023-03-14T20:53:08.858Z,9.37
2023-03-14T20:58:16.655Z,13.30
2023-03-14T21:08:26.493Z,12.57
2023-03-14T21:13:31.993Z,9.68
2023-03-14T21:18:36.001Z,10.43
2023-03-14T21:23:39.910Z,8.90
2023-03-14T21:28:43.847Z,10.73
2023-03-14T21:33:49.611Z,12.87
2023-03-14T21:38:53.734Z,9.97
2023-03-14T21:43:57.464Z,14.07
2023-03-14T21:49:01.405Z,14.77
2023-03-14T21:54:10.994Z,18.43
2023-03-14T21:59:15.530Z,15.50
2023-03-14T22:04:19.334Z,11.87
2023-03-14T22:09:23.463Z,11.90
2023-03-14T22:14:27.839Z,14.23
2023-03-14T22:19:33.204Z,15.80
2023-03-14T22:24:36.982Z,16.87
2023-03-14T22:29:41.308Z,16.47
2023-03-14T22:34:45.362Z,13.73
2023-03-14T22:39:49.231Z,13.70
2023-03-14T22:44:53.740Z,13.73
2023-03-14T22:49:57.482Z,14.60
2023-03-14T22:55:01.427Z,15.20
2023-03-14T23:00:13.777Z,11.27
2023-03-14T23:05:17.780Z,17.97
2023-03-14T23:10:22.386Z,14.87
2023-03-14T23:15:27.139Z,16.27
2023-03-14T23:20:31.067Z,9.73
2023-03-14T23:25:52.081Z,9.97
2023-03-14T23:30:59.246Z,12.77
2023-03-14T23:36:05.192Z,9.13
2023-03-14T23:41:10.279Z,10.93
2023-03-14T23:46:16.395Z,19.00
2023-03-14T23:51:20.203Z,10.63
2023-03-14T23:56:24.200Z,11.17
